sensor_id;sensor_type;location;lat;lon;timestamp;P1;durP1;ratioP1;P2;durP2;ratioP2
12535;SDS011;6334;48.696;2.114;2023-02-26T00:00:35;6.80;;;3.20;;
12535;SDS011;6334;48.696;2.114;2023-02-26T00:03:05;6.73;;;3.27;;
12535;SDS011;6334;48.696;2.114;2023-02-26T00:05:35;5.73;;;3.33;;
12535;SDS011;6334;48.696;2.114;2023-02-26T00:08:04;3.87;;;2.79;;
12535;SDS011;6334;48.696;2.114;2023-02-26T00:10:35;7.02;;;3.44;;
12535;SDS011;6334;48.696;2.114;2023-02-26T00:13:11;9.63;;;3.30;;
12535;SDS011;6334;48.696;2.114;2023-02-26T00:15:42;6.18;;;2.80;;
12535;SDS011;6334;48.696;2.114;2023-02-26T00:18:26;6.97;;;3.25;;
12535;SDS011;6334;48.696;2.114;2023-02-26T00:23:33;5.57;;;3.03;;
12535;SDS011;6334;48.696;2.114;2023-02-26T00:26:04;7.80;;;3.30;;
12535;SDS011;6334;48.696;2.114;2023-02-26T00:28:34;8.10;;;3.15;;
12535;SDS011;6334;48.696;2.114;2023-02-26T00:31:05;6.33;;;2.97;;
12535;SDS011;6334;48.696;2.114;2023-02-26T00:33:37;6.87;;;3.06;;
12535;SDS011;6334;48.696;2.114;2023-02-26T00:36:21;8.50;;;3.17;;
12535;SDS011;6334;48.696;2.114;2023-02-26T00:39:01;5.93;;;3.17;;
12535;SDS011;6334;48.696;2.114;2023-02-26T00:41:36;7.02;;;3.33;;
12535;SDS011;6334;48.696;2.114;2023-02-26T00:47:03;5.59;;;3.09;;
12535;SDS011;6334;48.696;2.114;2023-02-26T00:49:44;8.26;;;2.82;;
12535;SDS011;6334;48.696;2.114;2023-02-26T00:52:19;6.30;;;2.83;;
12535;SDS011;6334;48.696;2.114;2023-02-26T00:54:43;6.97;;;3.00;;
12535;SDS011;6334;48.696;2.114;2023-02-26T00:57:13;6.30;;;3.07;;
12535;SDS011;6334;48.696;2.114;2023-02-26T00:59:42;7.27;;;2.93;;
12535;SDS011;6334;48.696;2.114;2023-02-26T01:02:16;7.92;;;3.15;;
12535;SDS011;6334;48.696;2.114;2023-02-26T01:04:46;4.90;;;3.10;;
12535;SDS011;6334;48.696;2.114;2023-02-26T01:07:18;5.18;;;3.22;;
12535;SDS011;6334;48.696;2.114;2023-02-26T01:09:47;10.77;;;3.50;;
12535;SDS011;6334;48.696;2.114;2023-02-26T01:12:18;6.20;;;3.28;;
12535;SDS011;6334;48.696;2.114;2023-02-26T01:14:48;8.77;;;3.35;;
12535;SDS011;6334;48.696;2.114;2023-02-26T01:17:34;8.70;;;3.28;;
12535;SDS011;6334;48.696;2.114;2023-02-26T01:20:13;8.93;;;3.59;;
12535;SDS011;6334;48.696;2.114;2023-02-26T01:22:49;5.10;;;2.93;;
12535;SDS011;6334;48.696;2.114;2023-02-26T01:25:29;7.03;;;3.40;;
12535;SDS011;6334;48.696;2.114;2023-02-26T01:27:57;7.40;;;3.30;;
12535;SDS011;6334;48.696;2.114;2023-02-26T01:30:27;7.17;;;3.00;;
12535;SDS011;6334;48.696;2.114;2023-02-26T01:33:08;7.23;;;3.07;;
12535;SDS011;6334;48.696;2.114;2023-02-26T01:41:44;5.90;;;3.47;;
12535;SDS011;6334;48.696;2.114;2023-02-26T01:49:35;5.40;;;3.17;;
12535;SDS011;6334;48.696;2.114;2023-02-26T01:55:03;7.44;;;3.33;;
12535;SDS011;6334;48.696;2.114;2023-02-26T01:57:33;5.53;;;2.83;;
12535;SDS011;6334;48.696;2.114;2023-02-26T02:00:07;6.70;;;3.20;;
12535;SDS011;6334;48.696;2.114;2023-02-26T02:02:37;8.53;;;3.50;;
12535;SDS011;6334;48.696;2.114;2023-02-26T02:05:18;8.05;;;3.38;;
12535;SDS011;6334;48.696;2.114;2023-02-26T02:07:45;5.83;;;2.47;;
12535;SDS011;6334;48.696;2.114;2023-02-26T02:10:18;8.28;;;3.52;;
12535;SDS011;6334;48.696;2.114;2023-02-26T02:12:50;6.47;;;3.47;;
12535;SDS011;6334;48.696;2.114;2023-02-26T02:15:41;5.57;;;3.00;;
12535;SDS011;6334;48.696;2.114;2023-02-26T02:18:34;5.96;;;2.94;;
12535;SDS011;6334;48.696;2.114;2023-02-26T02:21:14;7.23;;;3.20;;
12535;SDS011;6334;48.696;2.114;2023-02-26T02:23:44;6.30;;;3.17;;
12535;SDS011;6334;48.696;2.114;2023-02-26T02:32:48;5.82;;;3.03;;
12535;SDS011;6334;48.696;2.114;2023-02-26T02:35:21;6.28;;;3.02;;
12535;SDS011;6334;48.696;2.114;2023-02-26T02:37:53;8.03;;;2.90;;
12535;SDS011;6334;48.696;2.114;2023-02-26T02:40:28;5.07;;;2.93;;
12535;SDS011;6334;48.696;2.114;2023-02-26T02:43:03;6.45;;;2.72;;
12535;SDS011;6334;48.696;2.114;2023-02-26T02:48:34;7.83;;;3.40;;
12535;SDS011;6334;48.696;2.114;2023-02-26T02:51:03;6.37;;;3.05;;
12535;SDS011;6334;48.696;2.114;2023-02-26T02:53:54;4.10;;;2.67;;
12535;SDS011;6334;48.696;2.114;2023-02-26T02:56:35;6.70;;;2.90;;
12535;SDS011;6334;48.696;2.114;2023-02-26T02:59:45;6.54;;;3.05;;
12535;SDS011;6334;48.696;2.114;2023-02-26T03:04:51;4.64;;;2.64;;
12535;SDS011;6334;48.696;2.114;2023-02-26T03:07:22;6.45;;;2.72;;
12535;SDS011;6334;48.696;2.114;2023-02-26T03:09:53;5.00;;;2.60;;
12535;SDS011;6334;48.696;2.114;2023-02-26T03:12:24;7.70;;;2.67;;
12535;SDS011;6334;48.696;2.114;2023-02-26T03:14:53;5.43;;;2.90;;
12535;SDS011;6334;48.696;2.114;2023-02-26T03:17:26;6.52;;;2.90;;
12535;SDS011;6334;48.696;2.114;2023-02-26T03:19:57;5.57;;;2.80;;
12535;SDS011;6334;48.696;2.114;2023-02-26T03:22:34;8.63;;;3.10;;
12535;SDS011;6334;48.696;2.114;2023-02-26T03:25:20;6.53;;;2.33;;
12535;SDS011;6334;48.696;2.114;2023-02-26T03:30:56;6.81;;;2.39;;
12535;SDS011;6334;48.696;2.114;2023-02-26T03:33:35;5.32;;;2.65;;
12535;SDS011;6334;48.696;2.114;2023-02-26T03:36:07;5.87;;;2.63;;
12535;SDS011;6334;48.696;2.114;2023-02-26T03:38:44;8.86;;;2.68;;
12535;SDS011;6334;48.696;2.114;2023-02-26T03:41:29;4.32;;;2.38;;
12535;SDS011;6334;48.696;2.114;2023-02-26T03:44:02;7.23;;;2.87;;
12535;SDS011;6334;48.696;2.114;2023-02-26T03:46:35;3.67;;;2.40;;
12535;SDS011;6334;48.696;2.114;2023-02-26T03:49:05;6.33;;;2.73;;
12535;SDS011;6334;48.696;2.114;2023-02-26T03:51:35;6.50;;;2.77;;
12535;SDS011;6334;48.696;2.114;2023-02-26T03:54:07;4.62;;;2.37;;
12535;SDS011;6334;48.696;2.114;2023-02-26T03:56:42;6.17;;;2.43;;
12535;SDS011;6334;48.696;2.114;2023-02-26T03:59:11;7.03;;;2.20;;
12535;SDS011;6334;48.696;2.114;2023-02-26T04:01:46;6.57;;;2.73;;
12535;SDS011;6334;48.696;2.114;2023-02-26T04:04:41;3.90;;;2.53;;
12535;SDS011;6334;48.696;2.114;2023-02-26T04:07:08;3.17;;;1.60;;
12535;SDS011;6334;48.696;2.114;2023-02-26T04:09:43;7.17;;;2.63;;
12535;SDS011;6334;48.696;2.114;2023-02-26T04:12:10;2.64;;;1.74;;
12535;SDS011;6334;48.696;2.114;2023-02-26T04:14:42;5.57;;;2.33;;
12535;SDS011;6334;48.696;2.114;2023-02-26T04:17:12;5.15;;;2.60;;
12535;SDS011;6334;48.696;2.114;2023-02-26T04:19:42;6.00;;;2.33;;
12535;SDS011;6334;48.696;2.114;2023-02-26T04:22:11;5.83;;;2.50;;
12535;SDS011;6334;48.696;2.114;2023-02-26T04:24:41;5.86;;;2.70;;
12535;SDS011;6334;48.696;2.114;2023-02-26T04:27:11;7.70;;;2.83;;
12535;SDS011;6334;48.696;2.114;2023-02-26T04:29:41;9.35;;;2.87;;
12535;SDS011;6334;48.696;2.114;2023-02-26T04:32:10;7.67;;;2.83;;
12535;SDS011;6334;48.696;2.114;2023-02-26T04:34:43;4.09;;;2.21;;
12535;SDS011;6334;48.696;2.114;2023-02-26T04:37:14;5.23;;;2.57;;
12535;SDS011;6334;48.696;2.114;2023-02-26T04:39:44;6.70;;;2.80;;
12535;SDS011;6334;48.696;2.114;2023-02-26T04:42:14;4.20;;;1.98;;
12535;SDS011;6334;48.696;2.114;2023-02-26T04:44:46;3.86;;;2.30;;
12535;SDS011;6334;48.696;2.114;2023-02-26T04:47:17;4.73;;;1.90;;
12535;SDS011;6334;48.696;2.114;2023-02-26T04:49:47;8.00;;;2.70;;
12535;SDS011;6334;48.696;2.114;2023-02-26T04:52:26;6.55;;;2.30;;
12535;SDS011;6334;48.696;2.114;2023-02-26T04:54:57;4.20;;;2.47;;
12535;SDS011;6334;48.696;2.114;2023-02-26T04:57:27;7.68;;;2.60;;
12535;SDS011;6334;48.696;2.114;2023-02-26T04:59:56;4.50;;;2.40;;
12535;SDS011;6334;48.696;2.114;2023-02-26T05:02:27;6.34;;;2.26;;
12535;SDS011;6334;48.696;2.114;2023-02-26T05:04:57;7.15;;;2.85;;
12535;SDS011;6334;48.696;2.114;2023-02-26T05:07:27;4.77;;;2.57;;
12535;SDS011;6334;48.696;2.114;2023-02-26T05:10:01;4.24;;;2.37;;
12535;SDS011;6334;48.696;2.114;2023-02-26T05:12:33;5.80;;;2.74;;
12535;SDS011;6334;48.696;2.114;2023-02-26T05:15:04;5.50;;;2.63;;
12535;SDS011;6334;48.696;2.114;2023-02-26T05:17:41;6.41;;;2.28;;
12535;SDS011;6334;48.696;2.114;2023-02-26T05:20:15;5.97;;;2.50;;
12535;SDS011;6334;48.696;2.114;2023-02-26T05:22:46;6.28;;;2.76;;
12535;SDS011;6334;48.696;2.114;2023-02-26T05:25:16;7.90;;;2.63;;
12535;SDS011;6334;48.696;2.114;2023-02-26T05:27:45;7.43;;;2.90;;
12535;SDS011;6334;48.696;2.114;2023-02-26T05:30:30;5.82;;;2.70;;
12535;SDS011;6334;48.696;2.114;2023-02-26T05:33:00;4.95;;;2.45;;
12535;SDS011;6334;48.696;2.114;2023-02-26T05:35:30;4.78;;;2.40;;
12535;SDS011;6334;48.696;2.114;2023-02-26T05:37:59;4.83;;;2.50;;
12535;SDS011;6334;48.696;2.114;2023-02-26T05:40:30;7.17;;;2.30;;
12535;SDS011;6334;48.696;2.114;2023-02-26T05:43:00;4.40;;;2.62;;
12535;SDS011;6334;48.696;2.114;2023-02-26T05:45:31;3.80;;;2.27;;
12535;SDS011;6334;48.696;2.114;2023-02-26T05:48:01;5.90;;;2.27;;
12535;SDS011;6334;48.696;2.114;2023-02-26T05:50:31;5.76;;;2.32;;
12535;SDS011;6334;48.696;2.114;2023-02-26T05:53:02;5.57;;;2.40;;
12535;SDS011;6334;48.696;2.114;2023-02-26T05:55:35;5.43;;;2.74;;
12535;SDS011;6334;48.696;2.114;2023-02-26T05:58:11;5.85;;;3.09;;
12535;SDS011;6334;48.696;2.114;2023-02-26T06:00:42;7.27;;;2.93;;
12535;SDS011;6334;48.696;2.114;2023-02-26T06:03:12;8.73;;;2.73;;
12535;SDS011;6334;48.696;2.114;2023-02-26T06:05:43;5.27;;;2.30;;
12535;SDS011;6334;48.696;2.114;2023-02-26T06:08:14;3.50;;;2.20;;
12535;SDS011;6334;48.696;2.114;2023-02-26T06:10:49;8.27;;;2.58;;
12535;SDS011;6334;48.696;2.114;2023-02-26T06:13:18;9.10;;;3.44;;
12535;SDS011;6334;48.696;2.114;2023-02-26T06:15:52;7.17;;;3.27;;
12535;SDS011;6334;48.696;2.114;2023-02-26T06:18:23;8.80;;;3.33;;
12535;SDS011;6334;48.696;2.114;2023-02-26T06:20:53;5.90;;;2.75;;
12535;SDS011;6334;48.696;2.114;2023-02-26T06:23:25;4.45;;;2.70;;
12535;SDS011;6334;48.696;2.114;2023-02-26T06:25:55;7.73;;;2.88;;
12535;SDS011;6334;48.696;2.114;2023-02-26T06:28:25;8.23;;;2.90;;
12535;SDS011;6334;48.696;2.114;2023-02-26T06:30:55;6.50;;;2.72;;
12535;SDS011;6334;48.696;2.114;2023-02-26T06:33:25;4.70;;;2.70;;
12535;SDS011;6334;48.696;2.114;2023-02-26T06:35:55;6.57;;;3.10;;
12535;SDS011;6334;48.696;2.114;2023-02-26T06:38:28;7.90;;;3.03;;
12535;SDS011;6334;48.696;2.114;2023-02-26T06:41:02;7.93;;;3.54;;
12535;SDS011;6334;48.696;2.114;2023-02-26T06:43:31;7.07;;;3.80;;
12535;SDS011;6334;48.696;2.114;2023-02-26T06:46:09;7.26;;;3.06;;
12535;SDS011;6334;48.696;2.114;2023-02-26T06:48:40;6.77;;;2.83;;
12535;SDS011;6334;48.696;2.114;2023-02-26T06:51:10;10.30;;;3.43;;
12535;SDS011;6334;48.696;2.114;2023-02-26T06:53:40;6.20;;;3.40;;
12535;SDS011;6334;48.696;2.114;2023-02-26T06:56:11;7.00;;;3.10;;
12535;SDS011;6334;48.696;2.114;2023-02-26T06:58:40;6.46;;;2.92;;
12535;SDS011;6334;48.696;2.114;2023-02-26T07:01:11;7.27;;;3.30;;
12535;SDS011;6334;48.696;2.114;2023-02-26T07:03:43;11.20;;;3.20;;
12535;SDS011;6334;48.696;2.114;2023-02-26T07:06:14;9.15;;;3.35;;
12535;SDS011;6334;48.696;2.114;2023-02-26T07:08:45;6.80;;;3.00;;
12535;SDS011;6334;48.696;2.114;2023-02-26T07:11:16;6.60;;;2.90;;
12535;SDS011;6334;48.696;2.114;2023-02-26T07:13:48;6.13;;;2.57;;
12535;SDS011;6334;48.696;2.114;2023-02-26T07:16:24;9.47;;;3.43;;
12535;SDS011;6334;48.696;2.114;2023-02-26T07:18:55;7.00;;;3.03;;
12535;SDS011;6334;48.696;2.114;2023-02-26T07:21:25;6.53;;;3.23;;
12535;SDS011;6334;48.696;2.114;2023-02-26T07:23:56;9.10;;;3.60;;
12535;SDS011;6334;48.696;2.114;2023-02-26T07:26:26;9.10;;;3.53;;
12535;SDS011;6334;48.696;2.114;2023-02-26T07:29:05;6.99;;;3.12;;
12535;SDS011;6334;48.696;2.114;2023-02-26T07:31:36;11.50;;;3.55;;
12535;SDS011;6334;48.696;2.114;2023-02-26T07:34:07;9.43;;;3.50;;
12535;SDS011;6334;48.696;2.114;2023-02-26T07:36:39;7.28;;;3.60;;
12535;SDS011;6334;48.696;2.114;2023-02-26T07:39:09;8.60;;;3.20;;
12535;SDS011;6334;48.696;2.114;2023-02-26T07:41:38;5.30;;;2.80;;
12535;SDS011;6334;48.696;2.114;2023-02-26T07:44:08;7.57;;;3.10;;
12535;SDS011;6334;48.696;2.114;2023-02-26T07:46:41;3.77;;;2.67;;
12535;SDS011;6334;48.696;2.114;2023-02-26T07:49:12;8.93;;;3.17;;
12535;SDS011;6334;48.696;2.114;2023-02-26T07:51:41;10.67;;;3.20;;
12535;SDS011;6334;48.696;2.114;2023-02-26T07:54:13;5.33;;;2.73;;
12535;SDS011;6334;48.696;2.114;2023-02-26T07:56:45;4.32;;;2.46;;
12535;SDS011;6334;48.696;2.114;2023-02-26T07:59:15;6.80;;;3.10;;
12535;SDS011;6334;48.696;2.114;2023-02-26T08:01:47;6.57;;;2.80;;
12535;SDS011;6334;48.696;2.114;2023-02-26T08:04:19;7.17;;;3.30;;
12535;SDS011;6334;48.696;2.114;2023-02-26T08:06:50;5.53;;;2.67;;
12535;SDS011;6334;48.696;2.114;2023-02-26T08:09:20;6.68;;;3.10;;
12535;SDS011;6334;48.696;2.114;2023-02-26T08:11:53;8.50;;;3.18;;
12535;SDS011;6334;48.696;2.114;2023-02-26T08:14:24;7.60;;;3.13;;
12535;SDS011;6334;48.696;2.114;2023-02-26T08:16:53;7.47;;;3.47;;
12535;SDS011;6334;48.696;2.114;2023-02-26T08:19:23;6.08;;;3.03;;
12535;SDS011;6334;48.696;2.114;2023-02-26T08:21:53;5.30;;;2.95;;
12535;SDS011;6334;48.696;2.114;2023-02-26T08:24:25;6.27;;;3.40;;
12535;SDS011;6334;48.696;2.114;2023-02-26T08:26:59;5.90;;;2.80;;
12535;SDS011;6334;48.696;2.114;2023-02-26T08:29:29;7.43;;;2.97;;
12535;SDS011;6334;48.696;2.114;2023-02-26T08:31:59;6.27;;;2.87;;
12535;SDS011;6334;48.696;2.114;2023-02-26T08:34:30;9.20;;;2.97;;
12535;SDS011;6334;48.696;2.114;2023-02-26T08:36:59;7.50;;;3.33;;
12535;SDS011;6334;48.696;2.114;2023-02-26T08:39:29;4.63;;;2.60;;
12535;SDS011;6334;48.696;2.114;2023-02-26T08:41:59;7.33;;;3.00;;
12535;SDS011;6334;48.696;2.114;2023-02-26T08:44:29;5.43;;;2.77;;
12535;SDS011;6334;48.696;2.114;2023-02-26T08:46:59;7.23;;;2.50;;
12535;SDS011;6334;48.696;2.114;2023-02-26T08:49:29;7.20;;;3.17;;
12535;SDS011;6334;48.696;2.114;2023-02-26T08:51:58;8.07;;;3.20;;
12535;SDS011;6334;48.696;2.114;2023-02-26T08:54:28;5.07;;;2.73;;
12535;SDS011;6334;48.696;2.114;2023-02-26T08:56:59;5.05;;;2.62;;
12535;SDS011;6334;48.696;2.114;2023-02-26T08:59:29;6.03;;;2.90;;
12535;SDS011;6334;48.696;2.114;2023-02-26T09:02:00;8.70;;;3.20;;
12535;SDS011;6334;48.696;2.114;2023-02-26T09:04:29;5.23;;;2.77;;
12535;SDS011;6334;48.696;2.114;2023-02-26T09:06:59;8.50;;;3.30;;
12535;SDS011;6334;48.696;2.114;2023-02-26T09:09:28;9.80;;;3.57;;
12535;SDS011;6334;48.696;2.114;2023-02-26T09:11:58;6.10;;;3.20;;
12535;SDS011;6334;48.696;2.114;2023-02-26T09:14:28;6.57;;;3.20;;
12535;SDS011;6334;48.696;2.114;2023-02-26T09:16:59;10.03;;;3.10;;
12535;SDS011;6334;48.696;2.114;2023-02-26T09:19:29;5.70;;;3.20;;
12535;SDS011;6334;48.696;2.114;2023-02-26T09:21:58;6.10;;;2.87;;
12535;SDS011;6334;48.696;2.114;2023-02-26T09:24:28;5.43;;;2.90;;
12535;SDS011;6334;48.696;2.114;2023-02-26T09:26:58;6.93;;;3.27;;
12535;SDS011;6334;48.696;2.114;2023-02-26T09:29:27;7.33;;;2.97;;
12535;SDS011;6334;48.696;2.114;2023-02-26T09:31:57;9.00;;;3.30;;
12535;SDS011;6334;48.696;2.114;2023-02-26T09:34:26;5.50;;;2.80;;
12535;SDS011;6334;48.696;2.114;2023-02-26T09:36:56;3.60;;;2.50;;
12535;SDS011;6334;48.696;2.114;2023-02-26T09:39:27;3.50;;;2.40;;
12535;SDS011;6334;48.696;2.114;2023-02-26T09:41:57;6.73;;;2.23;;
12535;SDS011;6334;48.696;2.114;2023-02-26T09:44:33;5.00;;;2.80;;
12535;SDS011;6334;48.696;2.114;2023-02-26T09:47:06;3.53;;;2.50;;
12535;SDS011;6334;48.696;2.114;2023-02-26T09:57:42;3.67;;;2.57;;
12535;SDS011;6334;48.696;2.114;2023-02-26T10:00:29;4.83;;;2.30;;
12535;SDS011;6334;48.696;2.114;2023-02-26T10:02:55;4.53;;;1.90;;
12535;SDS011;6334;48.696;2.114;2023-02-26T10:05:25;4.87;;;2.70;;
12535;SDS011;6334;48.696;2.114;2023-02-26T10:13:22;4.37;;;2.40;;
12535;SDS011;6334;48.696;2.114;2023-02-26T10:15:44;5.03;;;2.30;;
12535;SDS011;6334;48.696;2.114;2023-02-26T10:18:25;6.23;;;2.53;;
12535;SDS011;6334;48.696;2.114;2023-02-26T10:21:01;3.93;;;2.07;;
12535;SDS011;6334;48.696;2.114;2023-02-26T10:26:12;3.70;;;2.07;;
12535;SDS011;6334;48.696;2.114;2023-02-26T10:28:49;6.70;;;2.43;;
12535;SDS011;6334;48.696;2.114;2023-02-26T10:34:03;5.93;;;2.67;;
12535;SDS011;6334;48.696;2.114;2023-02-26T10:39:38;4.76;;;2.36;;
12535;SDS011;6334;48.696;2.114;2023-02-26T10:42:14;4.83;;;2.60;;
12535;SDS011;6334;48.696;2.114;2023-02-26T10:47:58;5.22;;;2.48;;
12535;SDS011;6334;48.696;2.114;2023-02-26T10:50:19;5.53;;;2.30;;
12535;SDS011;6334;48.696;2.114;2023-02-26T10:52:49;6.67;;;2.47;;
12535;SDS011;6334;48.696;2.114;2023-02-26T10:58:23;5.50;;;2.20;;
12535;SDS011;6334;48.696;2.114;2023-02-26T11:00:53;3.13;;;1.97;;
12535;SDS011;6334;48.696;2.114;2023-02-26T11:03:32;1.87;;;1.60;;
12535;SDS011;6334;48.696;2.114;2023-02-26T11:06:00;3.77;;;1.97;;
12535;SDS011;6334;48.696;2.114;2023-02-26T11:08:34;2.50;;;2.10;;
12535;SDS011;6334;48.696;2.114;2023-02-26T11:11:03;3.13;;;1.83;;
12535;SDS011;6334;48.696;2.114;2023-02-26T11:13:33;4.73;;;1.90;;
12535;SDS011;6334;48.696;2.114;2023-02-26T11:16:09;5.33;;;2.23;;
12535;SDS011;6334;48.696;2.114;2023-02-26T11:18:43;1.73;;;1.60;;
12535;SDS011;6334;48.696;2.114;2023-02-26T11:21:15;3.30;;;2.50;;
12535;SDS011;6334;48.696;2.114;2023-02-26T11:23:40;2.83;;;2.00;;
12535;SDS011;6334;48.696;2.114;2023-02-26T11:26:15;4.33;;;2.10;;
12535;SDS011;6334;48.696;2.114;2023-02-26T11:31:17;4.10;;;2.00;;
12535;SDS011;6334;48.696;2.114;2023-02-26T11:33:50;2.33;;;1.43;;
12535;SDS011;6334;48.696;2.114;2023-02-26T11:36:19;3.73;;;1.40;;
12535;SDS011;6334;48.696;2.114;2023-02-26T11:38:52;1.97;;;1.57;;
12535;SDS011;6334;48.696;2.114;2023-02-26T11:41:21;1.30;;;1.10;;
12535;SDS011;6334;48.696;2.114;2023-02-26T11:44:01;1.40;;;1.30;;
12535;SDS011;6334;48.696;2.114;2023-02-26T11:46:29;5.40;;;1.87;;
12535;SDS011;6334;48.696;2.114;2023-02-26T11:48:59;3.50;;;1.53;;
12535;SDS011;6334;48.696;2.114;2023-02-26T11:51:28;2.93;;;1.53;;
12535;SDS011;6334;48.696;2.114;2023-02-26T11:53:58;1.47;;;1.37;;
12535;SDS011;6334;48.696;2.114;2023-02-26T11:56:31;2.37;;;1.53;;
12535;SDS011;6334;48.696;2.114;2023-02-26T11:59:33;2.87;;;2.00;;
12535;SDS011;6334;48.696;2.114;2023-02-26T12:01:35;3.17;;;1.73;;
12535;SDS011;6334;48.696;2.114;2023-02-26T12:04:07;4.13;;;1.97;;
12535;SDS011;6334;48.696;2.114;2023-02-26T12:06:36;3.03;;;1.50;;
12535;SDS011;6334;48.696;2.114;2023-02-26T12:09:08;1.60;;;1.07;;
12535;SDS011;6334;48.696;2.114;2023-02-26T12:24:54;1.90;;;1.67;;
12535;SDS011;6334;48.696;2.114;2023-02-26T12:27:38;2.43;;;1.80;;
12535;SDS011;6334;48.696;2.114;2023-02-26T12:30:01;6.37;;;2.00;;
12535;SDS011;6334;48.696;2.114;2023-02-26T12:32:27;2.07;;;1.87;;
12535;SDS011;6334;48.696;2.114;2023-02-26T12:35:07;3.13;;;1.67;;
12535;SDS011;6334;48.696;2.114;2023-02-26T12:40:25;4.37;;;1.90;;
12535;SDS011;6334;48.696;2.114;2023-02-26T12:43:12;4.73;;;1.93;;
12535;SDS011;6334;48.696;2.114;2023-02-26T12:46:10;3.47;;;1.70;;
12535;SDS011;6334;48.696;2.114;2023-02-26T12:57:07;3.47;;;1.80;;
12535;SDS011;6334;48.696;2.114;2023-02-26T12:59:58;4.53;;;1.70;;
12535;SDS011;6334;48.696;2.114;2023-02-26T13:10:56;2.67;;;1.63;;
12535;SDS011;6334;48.696;2.114;2023-02-26T13:13:45;3.00;;;1.80;;
12535;SDS011;6334;48.696;2.114;2023-02-26T13:16:15;4.97;;;1.87;;
12535;SDS011;6334;48.696;2.114;2023-02-26T13:21:23;2.07;;;1.87;;
12535;SDS011;6334;48.696;2.114;2023-02-26T13:26:45;3.10;;;1.70;;
12535;SDS011;6334;48.696;2.114;2023-02-26T13:29:20;1.97;;;1.53;;
12535;SDS011;6334;48.696;2.114;2023-02-26T13:32:00;1.63;;;1.47;;
12535;SDS011;6334;48.696;2.114;2023-02-26T13:37:04;2.27;;;1.67;;
12535;SDS011;6334;48.696;2.114;2023-02-26T13:39:39;2.67;;;1.87;;
12535;SDS011;6334;48.696;2.114;2023-02-26T13:42:11;1.60;;;1.50;;
12535;SDS011;6334;48.696;2.114;2023-02-26T13:52:55;2.67;;;1.93;;
12535;SDS011;6334;48.696;2.114;2023-02-26T13:58:27;4.27;;;2.13;;
12535;SDS011;6334;48.696;2.114;2023-02-26T14:01:05;3.83;;;2.07;;
12535;SDS011;6334;48.696;2.114;2023-02-26T14:06:22;1.67;;;1.37;;
12535;SDS011;6334;48.696;2.114;2023-02-26T14:08:54;3.67;;;1.80;;
12535;SDS011;6334;48.696;2.114;2023-02-26T14:11:36;3.43;;;1.80;;
12535;SDS011;6334;48.696;2.114;2023-02-26T14:14:22;8.10;;;1.97;;
12535;SDS011;6334;48.696;2.114;2023-02-26T14:19:42;2.07;;;1.50;;
12535;SDS011;6334;48.696;2.114;2023-02-26T14:22:27;3.87;;;1.67;;
12535;SDS011;6334;48.696;2.114;2023-02-26T14:25:08;2.33;;;1.50;;
12535;SDS011;6334;48.696;2.114;2023-02-26T14:28:16;3.37;;;1.67;;
12535;SDS011;6334;48.696;2.114;2023-02-26T14:30:27;2.57;;;1.67;;
12535;SDS011;6334;48.696;2.114;2023-02-26T14:35:31;1.33;;;1.27;;
12535;SDS011;6334;48.696;2.114;2023-02-26T14:38:03;3.13;;;1.50;;
12535;SDS011;6334;48.696;2.114;2023-02-26T14:43:15;1.93;;;1.37;;
12535;SDS011;6334;48.696;2.114;2023-02-26T14:45:42;5.53;;;2.17;;
12535;SDS011;6334;48.696;2.114;2023-02-26T14:48:13;3.57;;;1.73;;
12535;SDS011;6334;48.696;2.114;2023-02-26T15:01:44;3.23;;;1.83;;
12535;SDS011;6334;48.696;2.114;2023-02-26T15:09:27;1.93;;;1.40;;
12535;SDS011;6334;48.696;2.114;2023-02-26T15:12:25;2.27;;;1.50;;
12535;SDS011;6334;48.696;2.114;2023-02-26T15:21:06;2.23;;;1.43;;
12535;SDS011;6334;48.696;2.114;2023-02-26T15:23:40;3.13;;;1.70;;
12535;SDS011;6334;48.696;2.114;2023-02-26T15:26:15;3.47;;;1.43;;
12535;SDS011;6334;48.696;2.114;2023-02-26T15:28:39;1.77;;;1.60;;
12535;SDS011;6334;48.696;2.114;2023-02-26T15:31:09;3.80;;;1.93;;
12535;SDS011;6334;48.696;2.114;2023-02-26T15:33:38;2.10;;;1.57;;
12535;SDS011;6334;48.696;2.114;2023-02-26T15:36:11;2.73;;;1.90;;
12535;SDS011;6334;48.696;2.114;2023-02-26T15:38:48;3.07;;;1.80;;
12535;SDS011;6334;48.696;2.114;2023-02-26T15:41:16;2.00;;;1.73;;
12535;SDS011;6334;48.696;2.114;2023-02-26T15:43:49;5.70;;;2.17;;
12535;SDS011;6334;48.696;2.114;2023-02-26T15:46:18;1.93;;;1.70;;
12535;SDS011;6334;48.696;2.114;2023-02-26T15:48:47;3.93;;;2.10;;
12535;SDS011;6334;48.696;2.114;2023-02-26T15:51:17;3.43;;;1.90;;
12535;SDS011;6334;48.696;2.114;2023-02-26T15:53:48;2.50;;;2.17;;
12535;SDS011;6334;48.696;2.114;2023-02-26T15:56:19;4.00;;;2.07;;
12535;SDS011;6334;48.696;2.114;2023-02-26T15:58:51;3.30;;;1.90;;
12535;SDS011;6334;48.696;2.114;2023-02-26T16:01:21;4.27;;;2.23;;
12535;SDS011;6334;48.696;2.114;2023-02-26T16:03:50;2.40;;;1.90;;
12535;SDS011;6334;48.696;2.114;2023-02-26T16:06:23;2.27;;;2.07;;
12535;SDS011;6334;48.696;2.114;2023-02-26T16:08:58;3.17;;;2.30;;
12535;SDS011;6334;48.696;2.114;2023-02-26T16:11:38;3.73;;;2.10;;
12535;SDS011;6334;48.696;2.114;2023-02-26T16:13:57;2.97;;;2.10;;
12535;SDS011;6334;48.696;2.114;2023-02-26T16:16:28;4.30;;;2.00;;
12535;SDS011;6334;48.696;2.114;2023-02-26T16:18:56;1.73;;;1.50;;
12535;SDS011;6334;48.696;2.114;2023-02-26T16:21:35;2.27;;;1.83;;
12535;SDS011;6334;48.696;2.114;2023-02-26T16:24:04;2.17;;;2.00;;
12535;SDS011;6334;48.696;2.114;2023-02-26T16:26:36;2.37;;;2.13;;
12535;SDS011;6334;48.696;2.114;2023-02-26T16:29:10;3.13;;;1.90;;
12535;SDS011;6334;48.696;2.114;2023-02-26T16:31:35;3.83;;;2.17;;
12535;SDS011;6334;48.696;2.114;2023-02-26T16:34:22;3.53;;;1.83;;
12535;SDS011;6334;48.696;2.114;2023-02-26T16:36:38;3.33;;;2.53;;
12535;SDS011;6334;48.696;2.114;2023-02-26T16:41:36;4.37;;;2.93;;
12535;SDS011;6334;48.696;2.114;2023-02-26T16:46:41;3.73;;;2.77;;
12535;SDS011;6334;48.696;2.114;2023-02-26T16:51:54;4.03;;;2.80;;
12535;SDS011;6334;48.696;2.114;2023-02-26T16:54:31;4.50;;;2.27;;
12535;SDS011;6334;48.696;2.114;2023-02-26T16:57:05;3.53;;;2.70;;
12535;SDS011;6334;48.696;2.114;2023-02-26T16:59:35;3.97;;;2.30;;
12535;SDS011;6334;48.696;2.114;2023-02-26T17:02:08;4.10;;;2.03;;
12535;SDS011;6334;48.696;2.114;2023-02-26T17:04:34;3.37;;;2.13;;
12535;SDS011;6334;48.696;2.114;2023-02-26T17:07:24;5.37;;;2.23;;
12535;SDS011;6334;48.696;2.114;2023-02-26T17:10:06;2.63;;;2.40;;
12535;SDS011;6334;48.696;2.114;2023-02-26T17:12:37;3.70;;;2.67;;
12535;SDS011;6334;48.696;2.114;2023-02-26T17:14:59;3.03;;;2.30;;
12535;SDS011;6334;48.696;2.114;2023-02-26T17:17:28;3.80;;;2.33;;
12535;SDS011;6334;48.696;2.114;2023-02-26T17:19:57;6.20;;;2.37;;
12535;SDS011;6334;48.696;2.114;2023-02-26T17:22:27;4.30;;;2.37;;
12535;SDS011;6334;48.696;2.114;2023-02-26T17:24:56;3.90;;;2.03;;
12535;SDS011;6334;48.696;2.114;2023-02-26T17:27:31;3.17;;;1.73;;
12535;SDS011;6334;48.696;2.114;2023-02-26T17:29:56;1.80;;;1.70;;
12535;SDS011;6334;48.696;2.114;2023-02-26T17:32:26;2.80;;;2.60;;
12535;SDS011;6334;48.696;2.114;2023-02-26T17:34:56;2.80;;;2.60;;
12535;SDS011;6334;48.696;2.114;2023-02-26T17:37:29;3.70;;;2.80;;
12535;SDS011;6334;48.696;2.114;2023-02-26T17:39:55;3.63;;;3.27;;
12535;SDS011;6334;48.696;2.114;2023-02-26T17:42:25;2.80;;;2.60;;
12535;SDS011;6334;48.696;2.114;2023-02-26T17:44:55;2.63;;;2.43;;
12535;SDS011;6334;48.696;2.114;2023-02-26T17:47:25;3.23;;;2.93;;
12535;SDS011;6334;48.696;2.114;2023-02-26T17:49:54;3.03;;;2.73;;
12535;SDS011;6334;48.696;2.114;2023-02-26T17:52:24;5.70;;;3.37;;
12535;SDS011;6334;48.696;2.114;2023-02-26T17:55:01;3.59;;;3.07;;
12535;SDS011;6334;48.696;2.114;2023-02-26T17:57:32;5.80;;;3.73;;
12535;SDS011;6334;48.696;2.114;2023-02-26T18:00:02;3.77;;;3.10;;
12535;SDS011;6334;48.696;2.114;2023-02-26T18:02:33;3.53;;;3.00;;
12535;SDS011;6334;48.696;2.114;2023-02-26T18:05:03;3.57;;;2.77;;
12535;SDS011;6334;48.696;2.114;2023-02-26T18:07:33;3.93;;;2.90;;
12535;SDS011;6334;48.696;2.114;2023-02-26T18:10:02;3.37;;;2.53;;